createdAt,value
2022-09-12T00:00:17.133Z,25.45
2022-09-12T00:02:44.647Z,36.45
2022-09-12T00:05:12.110Z,33.25
2022-09-12T00:07:39.554Z,31.95
2022-09-12T00:10:07.599Z,21.83
2022-09-12T00:12:35.115Z,13.82
2022-09-12T00:15:02.674Z,26.10
2022-09-12T00:17:31.520Z,31.02
2022-09-12T00:19:59.054Z,25.50
2022-09-12T00:22:26.528Z,24.33
2022-09-12T00:24:54.000Z,31.58
2022-09-12T00:27:21.486Z,19.70
2022-09-12T00:29:48.951Z,24.75
2022-09-12T00:32:16.447Z,19.25
2022-09-12T00:34:45.400Z,20.75
2022-09-12T00:37:13.039Z,15.18
2022-09-12T00:39:40.653Z,14.82
2022-09-12T00:42:10.143Z,14.85
2022-09-12T00:44:47.949Z,14.80
2022-09-12T00:47:19.046Z,14.68
2022-09-12T00:49:52.213Z,13.98
2022-09-12T00:52:25.383Z,14.45
2022-09-12T00:54:57.536Z,15.38
2022-09-12T00:57:29.485Z,16.10
2022-09-12T01:00:00.320Z,17.55
2022-09-12T01:02:28.956Z,16.08
2022-09-12T01:04:58.402Z,16.20
2022-09-12T01:07:25.965Z,17.33
2022-09-12T01:09:53.742Z,17.02
2022-09-12T01:12:21.654Z,17.02
2022-09-12T01:14:49.121Z,18.05
2022-09-12T01:17:16.988Z,18.20
2022-09-12T01:20:21.859Z,19.23
2022-09-12T01:23:11.737Z,58.78
2022-09-12T01:25:51.585Z,37.45
2022-09-12T01:28:47.385Z,53.00
2022-09-12T01:31:21.972Z,37.80
2022-09-12T01:34:03.477Z,35.20
2022-09-12T01:36:38.113Z,45.78
2022-09-12T01:39:09.627Z,44.53
2022-09-12T01:41:49.945Z,47.47
2022-09-12T01:44:27.372Z,22.50
2022-09-12T01:47:01.872Z,22.70
2022-09-12T01:49:37.311Z,19.27
2022-09-12T01:52:13.912Z,16.00
2022-09-12T01:54:46.405Z,15.15
2022-09-12T01:57:17.942Z,45.53
2022-09-12T01:59:48.922Z,38.92
2022-09-12T02:02:23.812Z,41.17
2022-09-12T02:04:59.190Z,24.70
2022-09-12T02:07:35.710Z,48.17
2022-09-12T02:10:08.576Z,51.08
2022-09-12T02:12:43.588Z,52.05
2022-09-12T02:15:13.502Z,39.65
2022-09-12T02:17:45.319Z,22.97
2022-09-12T02:20:37.195Z,22.02
2022-09-12T02:23:09.687Z,19.48
2022-09-12T02:25:40.900Z,21.15
2022-09-12T02:28:13.439Z,19.88
2022-09-12T02:30:44.630Z,18.05
2022-09-12T02:33:24.027Z,24.70
2022-09-12T02:35:58.184Z,34.87
2022-09-12T02:38:32.720Z,28.00
2022-09-12T02:41:00.275Z,33.63
2022-09-12T02:43:27.832Z,42.05
2022-09-12T02:45:55.340Z,43.00
2022-09-12T02:48:28.468Z,25.77
2022-09-12T02:50:56.239Z,20.98
2022-09-12T02:53:24.340Z,21.63
2022-09-12T02:55:52.994Z,26.67
2022-09-12T02:58:24.076Z,21.92
2022-09-12T03:01:01.129Z,21.30
2022-09-12T03:03:45.895Z,24.17
2022-09-12T03:06:19.207Z,21.38
2022-09-12T03:09:01.622Z,27.50
2022-09-12T03:11:44.212Z,41.00
2022-09-12T03:14:23.340Z,41.50
2022-09-12T03:16:58.314Z,46.47
2022-09-12T03:19:36.190Z,23.48
2022-09-12T03:22:11.397Z,19.00
2022-09-12T03:24:45.972Z,19.35
2022-09-12T03:27:18.023Z,22.70
2022-09-12T03:29:48.118Z,21.25
2022-09-12T03:32:16.552Z,18.65
2022-09-12T03:34:45.364Z,18.25
2022-09-12T03:37:12.843Z,18.63
2022-09-12T03:39:40.394Z,20.67
2022-09-12T03:42:07.997Z,18.40
2022-09-12T03:44:35.473Z,20.00
2022-09-12T03:47:02.924Z,19.63
2022-09-12T03:49:30.389Z,24.92
2022-09-12T03:51:59.199Z,21.23
2022-09-12T03:54:26.654Z,23.03
2022-09-12T03:56:54.113Z,26.80
2022-09-12T03:59:21.608Z,37.42
2022-09-12T04:01:49.087Z,31.50
2022-09-12T04:04:16.531Z,31.98
2022-09-12T04:06:44.074Z,22.02
2022-09-12T04:09:12.909Z,19.23
2022-09-12T04:11:40.409Z,20.43
2022-09-12T04:14:07.951Z,22.73
2022-09-12T04:16:35.457Z,38.25
2022-09-12T04:19:03.008Z,36.08
2022-09-12T04:21:30.912Z,24.40
2022-09-12T04:23:58.411Z,21.97
2022-09-12T04:26:29.693Z,20.43
2022-09-12T04:28:57.575Z,18.43
2022-09-12T04:31:26.115Z,20.02
2022-09-12T04:33:57.849Z,18.03
2022-09-12T04:36:26.222Z,19.03
2022-09-12T04:38:53.792Z,18.33
2022-09-12T04:41:22.998Z,27.10
2022-09-12T04:43:55.133Z,40.93
2022-09-12T04:46:22.932Z,36.47
2022-09-12T04:48:54.610Z,24.03
2022-09-12T04:51:27.634Z,26.23
2022-09-12T04:53:56.729Z,26.93
2022-09-12T04:56:25.205Z,31.00
2022-09-12T04:58:54.024Z,32.57
2022-09-12T05:01:23.165Z,40.38
2022-09-12T05:03:51.745Z,44.70
2022-09-12T05:06:21.988Z,47.80
2022-09-12T05:08:49.877Z,41.07
2022-09-12T05:11:24.087Z,42.07
2022-09-12T05:13:54.160Z,34.25
2022-09-12T05:16:22.758Z,37.90
2022-09-12T05:18:50.417Z,43.67
2022-09-12T05:21:19.895Z,49.50
2022-09-12T05:23:48.634Z,46.60
2022-09-12T05:26:17.266Z,46.92
2022-09-12T05:28:44.726Z,41.92
2022-09-12T05:31:15.648Z,37.33
2022-09-12T05:33:45.679Z,42.22
2022-09-12T05:36:15.459Z,33.55
2022-09-12T05:38:42.949Z,36.35
2022-09-12T05:41:16.650Z,37.10
2022-09-12T05:43:46.533Z,32.08
2022-09-12T05:46:17.240Z,38.22
2022-09-12T05:48:46.436Z,37.20
2022-09-12T05:51:17.454Z,37.20
2022-09-12T05:53:45.158Z,37.72
2022-09-12T05:56:14.429Z,30.67
2022-09-12T05:58:45.189Z,24.70
2022-09-12T06:01:15.947Z,18.60
2022-09-12T06:03:46.205Z,25.67
2022-09-12T06:06:14.836Z,19.33
2022-09-12T06:08:44.199Z,22.58
2022-09-12T06:11:13.306Z,44.47
2022-09-12T06:13:42.116Z,25.17
2022-09-12T06:16:11.762Z,29.52
2022-09-12T06:18:41.535Z,44.55
2022-09-12T06:21:11.326Z,49.08
2022-09-12T06:23:40.064Z,45.78
2022-09-12T06:26:11.004Z,35.35
2022-09-12T06:28:40.601Z,15.02
2022-09-12T06:31:10.925Z,16.95
2022-09-12T06:33:41.902Z,32.70
2022-09-12T06:36:12.541Z,17.27
2022-09-12T06:38:40.425Z,26.38
2022-09-12T06:41:09.112Z,18.23
2022-09-12T06:43:37.214Z,30.52
2022-09-12T06:46:05.388Z,19.95
2022-09-12T06:48:33.190Z,32.90
2022-09-12T06:51:04.776Z,29.23
2022-09-12T06:53:34.226Z,28.40
2022-09-12T06:56:03.335Z,31.10
2022-09-12T06:58:31.410Z,25.38
2022-09-12T07:01:03.197Z,31.17
2022-09-12T07:03:30.736Z,45.00
2022-09-12T07:05:58.708Z,19.10
2022-09-12T07:08:31.710Z,37.35
2022-09-12T07:11:01.169Z,39.50
2022-09-12T07:13:28.710Z,18.98
2022-09-12T07:15:56.287Z,12.57
2022-09-12T07:18:24.154Z,13.30
2022-09-12T07:20:51.598Z,11.88
2022-09-12T07:23:19.066Z,12.88
2022-09-12T07:25:57.036Z,9.63
2022-09-12T07:28:25.249Z,11.25
2022-09-12T07:30:53.898Z,9.57
2022-09-12T07:33:21.728Z,11.52
2022-09-12T07:35:49.556Z,10.98
2022-09-12T07:38:17.116Z,9.63
2022-09-12T07:40:44.606Z,13.02
2022-09-12T07:43:13.469Z,13.15
2022-09-12T07:45:42.282Z,16.05
2022-09-12T07:48:10.414Z,13.00
2022-09-12T07:50:40.035Z,7.57
2022-09-12T07:53:11.550Z,7.95
2022-09-12T07:55:38.992Z,8.30
2022-09-12T07:58:06.476Z,13.52
2022-09-12T08:00:36.369Z,21.42
2022-09-12T08:03:04.415Z,14.98
2022-09-12T08:05:31.861Z,45.00
2022-09-12T08:07:59.307Z,32.20
2022-09-12T08:10:26.742Z,43.38
2022-09-12T08:12:54.226Z,44.25
2022-09-12T08:15:21.895Z,45.65
2022-09-12T08:17:50.826Z,37.45
2022-09-12T08:20:18.536Z,28.95
2022-09-12T08:22:46.015Z,22.90
2022-09-12T08:25:13.530Z,11.43
2022-09-12T08:27:41.220Z,12.88
2022-09-12T08:30:09.790Z,12.52
2022-09-12T08:32:37.243Z,23.85
2022-09-12T08:35:07.990Z,16.17
2022-09-12T08:37:35.443Z,9.07
2022-09-12T08:40:06.576Z,11.68
2022-09-12T08:42:48.924Z,21.98
2022-09-12T08:45:23.751Z,10.68
2022-09-12T08:47:52.008Z,17.95
2022-09-12T08:50:23.287Z,23.10
2022-09-12T08:52:58.391Z,19.55
2022-09-12T08:55:31.346Z,22.77
2022-09-12T08:58:00.455Z,22.67
2022-09-12T09:00:38.031Z,16.40
2022-09-12T09:03:24.991Z,19.85
2022-09-12T09:06:02.334Z,34.22
2022-09-12T09:08:45.954Z,26.73
2022-09-12T09:11:30.479Z,27.45
2022-09-12T09:14:27.352Z,11.95
2022-09-12T09:16:57.191Z,21.17
2022-09-12T09:19:27.959Z,22.77
2022-09-12T09:22:01.657Z,24.25
2022-09-12T09:24:35.789Z,22.75
2022-09-12T09:27:23.613Z,14.27
2022-09-12T09:29:56.884Z,23.35
2022-09-12T09:32:28.051Z,26.30
2022-09-12T09:34:55.582Z,19.98
2022-09-12T09:37:34.908Z,16.98
2022-09-12T09:40:12.000Z,15.90
2022-09-12T09:42:46.897Z,56.85
2022-09-12T09:45:16.820Z,43.42
2022-09-12T09:47:46.788Z,31.33
2022-09-12T09:50:17.474Z,29.05
2022-09-12T09:52:48.256Z,45.20
2022-09-12T09:55:21.004Z,52.33
2022-09-12T09:57:49.890Z,30.63
2022-09-12T10:00:27.011Z,38.47
2022-09-12T10:03:04.556Z,36.20
2022-09-12T10:05:35.552Z,42.65
2022-09-12T10:08:08.081Z,36.72
2022-09-12T10:10:35.547Z,19.02
2022-09-12T10:13:25.991Z,31.90
2022-09-12T10:16:02.416Z,22.05
2022-09-12T10:18:35.816Z,35.40
2022-09-12T10:21:13.299Z,34.58
2022-09-12T10:23:43.498Z,20.15
2022-09-12T10:26:13.775Z,12.32
2022-09-12T10:28:43.619Z,20.30
2022-09-12T10:31:15.652Z,27.77
2022-09-12T10:33:47.261Z,25.27
2022-09-12T10:36:16.532Z,25.92
2022-09-12T10:38:51.951Z,33.00
2022-09-12T10:41:20.480Z,24.30
2022-09-12T10:43:48.353Z,31.70
2022-09-12T10:46:25.060Z,24.85
2022-09-12T10:49:13.008Z,33.67
2022-09-12T10:51:40.454Z,34.67
2022-09-12T10:54:12.678Z,26.05
2022-09-12T10:56:47.738Z,28.02
2022-09-12T10:59:29.466Z,21.00
2022-09-12T11:02:01.406Z,12.95
2022-09-12T11:04:41.842Z,15.63
2022-09-12T11:07:29.751Z,14.27
2022-09-12T11:10:03.800Z,19.98
2022-09-12T11:12:41.143Z,18.52
2022-09-12T11:15:39.588Z,8.73
2022-09-12T11:18:15.394Z,17.88
2022-09-12T11:20:55.798Z,22.48
2022-09-12T11:23:46.505Z,7.57
2022-09-12T11:26:27.658Z,13.40
2022-09-12T11:29:08.134Z,17.20
2022-09-12T11:31:53.642Z,12.65
2022-09-12T11:34:34.611Z,22.15
2022-09-12T11:37:21.233Z,11.48
2022-09-12T11:39:55.397Z,16.67
2022-09-12T11:42:29.408Z,20.25
2022-09-12T11:45:04.093Z,19.00
2022-09-12T11:47:34.822Z,21.60
2022-09-12T11:50:14.993Z,13.60
2022-09-12T11:52:42.507Z,14.32
2022-09-12T11:55:18.050Z,19.50
2022-09-12T11:57:53.469Z,16.88
2022-09-12T12:00:22.790Z,16.00
2022-09-12T12:03:01.122Z,16.27
2022-09-12T12:05:35.154Z,11.85
2022-09-12T12:08:05.839Z,18.48
2022-09-12T12:10:37.709Z,15.57
2022-09-12T12:13:14.252Z,18.27
2022-09-12T12:15:47.675Z,15.25
2022-09-12T12:18:19.241Z,13.98
2022-09-12T12:20:47.240Z,15.40
2022-09-12T12:23:26.803Z,14.52
2022-09-12T12:25:56.464Z,14.07
2022-09-12T12:29:00.025Z,16.02
2022-09-12T12:31:27.714Z,15.25
2022-09-12T12:34:26.247Z,19.20
2022-09-12T12:36:55.256Z,16.02
2022-09-12T12:40:00.846Z,16.58
2022-09-12T12:43:22.312Z,15.18
2022-09-12T12:46:12.838Z,14.82
2022-09-12T12:49:01.483Z,16.50
2022-09-12T12:51:33.924Z,15.27
2022-09-12T12:54:04.807Z,16.80
2022-09-12T12:56:40.119Z,18.65
2022-09-12T12:59:18.193Z,13.30
2022-09-12T13:01:52.819Z,17.75
2022-09-12T13:04:24.488Z,14.93
2022-09-12T13:07:02.574Z,15.65
2022-09-12T13:09:35.836Z,14.07
2022-09-12T13:12:06.044Z,20.27
2022-09-12T13:14:49.226Z,19.42
2022-09-12T13:17:22.883Z,15.98
2022-09-12T13:20:10.627Z,16.15
2022-09-12T13:22:42.556Z,9.88
2022-09-12T13:25:23.866Z,14.90
2022-09-12T13:28:18.376Z,11.15
2022-09-12T13:30:48.632Z,15.07
2022-09-12T13:33:21.726Z,17.45
2022-09-12T13:36:09.769Z,11.50
2022-09-12T13:38:47.931Z,12.82
2022-09-12T13:41:33.892Z,14.10
2022-09-12T13:44:02.533Z,13.13
2022-09-12T13:46:33.913Z,19.23
2022-09-12T13:49:18.593Z,13.60
2022-09-12T13:51:46.192Z,15.30
2022-09-12T13:54:23.871Z,15.68
2022-09-12T13:56:53.310Z,16.27
2022-09-12T13:59:20.737Z,17.83
2022-09-12T14:01:48.803Z,17.95
2022-09-12T14:04:36.353Z,16.08
2022-09-12T14:07:12.911Z,18.58
2022-09-12T14:09:42.642Z,16.92
2022-09-12T14:12:25.071Z,17.92
2022-09-12T14:14:54.075Z,15.98
2022-09-12T14:17:27.417Z,19.13
2022-09-12T14:19:55.390Z,18.08
2022-09-12T14:22:23.484Z,17.77
2022-09-12T14:24:51.779Z,15.88
2022-09-12T14:27:26.687Z,18.75
2022-09-12T14:29:59.012Z,18.40
2022-09-12T14:32:26.456Z,16.45
2022-09-12T14:35:14.938Z,18.27
2022-09-12T14:37:51.168Z,19.95
2022-09-12T14:40:21.511Z,18.67
2022-09-12T14:42:52.614Z,16.02
2022-09-12T14:45:32.345Z,20.25
2022-09-12T14:48:00.382Z,18.63
2022-09-12T14:50:31.179Z,18.42
2022-09-12T14:53:06.406Z,18.05
2022-09-12T14:55:35.220Z,18.55
2022-09-12T14:58:17.100Z,17.23
2022-09-12T15:00:55.935Z,18.08
2022-09-12T15:03:28.167Z,18.00
2022-09-12T15:05:56.191Z,19.45
2022-09-12T15:08:23.980Z,17.60
2022-09-12T15:10:51.580Z,15.10
2022-09-12T15:13:22.949Z,17.35
2022-09-12T15:15:52.684Z,18.92
2022-09-12T15:18:21.397Z,20.98
2022-09-12T15:20:51.266Z,18.45
2022-09-12T15:23:22.060Z,19.25
2022-09-12T15:25:50.114Z,17.98
2022-09-12T15:28:22.471Z,18.67
2022-09-12T15:30:51.394Z,20.00
2022-09-12T15:33:20.851Z,18.25
2022-09-12T15:35:48.365Z,17.08
2022-09-12T15:38:15.842Z,17.27
2022-09-12T15:40:43.335Z,16.80
2022-09-12T15:43:12.995Z,15.55
2022-09-12T15:45:51.347Z,16.92
2022-09-12T15:48:19.198Z,16.60
2022-09-12T15:50:46.710Z,13.20
2022-09-12T15:53:16.079Z,14.57
2022-09-12T15:55:43.932Z,15.13
2022-09-12T15:58:11.729Z,14.13
2022-09-12T16:00:39.263Z,16.77
2022-09-12T16:03:13.650Z,15.80
2022-09-12T16:05:45.518Z,15.88
2022-09-12T16:08:12.989Z,16.33
2022-09-12T16:10:40.465Z,16.80
2022-09-12T16:13:07.910Z,15.70
2022-09-12T16:15:35.715Z,14.48
2022-09-12T16:18:03.195Z,14.45
2022-09-12T16:20:31.996Z,14.52
2022-09-12T16:22:59.482Z,15.68
2022-09-12T16:25:26.932Z,16.38
2022-09-12T16:27:54.447Z,16.60
2022-09-12T16:30:22.051Z,13.93
2022-09-12T16:32:49.542Z,15.98
2022-09-12T16:35:17.114Z,15.00
2022-09-12T16:37:45.903Z,14.85
2022-09-12T16:40:15.237Z,17.02
2022-09-12T16:42:43.891Z,16.25
2022-09-12T16:45:12.539Z,16.08
2022-09-12T16:47:40.098Z,17.70
2022-09-12T16:50:08.834Z,15.93
2022-09-12T16:52:36.479Z,16.95
2022-09-12T16:55:06.218Z,14.95
2022-09-12T16:57:33.930Z,16.75
2022-09-12T17:00:01.402Z,17.63
2022-09-12T17:02:28.889Z,22.58
2022-09-12T17:04:56.699Z,22.85
2022-09-12T17:07:24.163Z,24.17
2022-09-12T17:09:51.992Z,15.85
2022-09-12T17:12:20.787Z,18.55
2022-09-12T17:14:48.239Z,16.50
2022-09-12T17:17:15.691Z,39.88
2022-09-12T17:19:43.399Z,47.70
2022-09-12T17:22:10.876Z,56.70
2022-09-12T17:24:38.364Z,47.97
2022-09-12T17:27:06.267Z,28.65
2022-09-12T17:29:36.972Z,14.60
2022-09-12T17:32:04.463Z,10.68
2022-09-12T17:34:32.095Z,12.35
2022-09-12T17:36:59.554Z,16.35
2022-09-12T17:39:27.312Z,17.38
2022-09-12T17:41:57.374Z,15.40
2022-09-12T17:44:24.892Z,13.02
2022-09-12T17:46:53.679Z,19.98
2022-09-12T17:49:22.005Z,30.95
2022-09-12T17:51:49.587Z,11.07
2022-09-12T17:54:20.679Z,11.95
2022-09-12T17:56:51.216Z,12.73
2022-09-12T17:59:20.462Z,13.07
2022-09-12T18:02:05.849Z,12.75
2022-09-12T18:04:34.713Z,14.57
2022-09-12T18:07:02.285Z,13.68
2022-09-12T18:09:30.638Z,12.45
2022-09-12T18:11:58.415Z,13.57
2022-09-12T18:14:27.649Z,14.20
2022-09-12T18:16:57.019Z,17.00
2022-09-12T18:19:25.207Z,16.23
2022-09-12T18:21:54.367Z,16.02
2022-09-12T18:24:22.111Z,15.52
2022-09-12T18:26:49.642Z,18.48
2022-09-12T18:29:17.623Z,28.05
2022-09-12T18:31:46.644Z,27.00
2022-09-12T18:34:14.620Z,22.85
2022-09-12T18:36:42.795Z,20.13
2022-09-12T18:39:12.220Z,24.50
2022-09-12T18:41:40.322Z,21.40
2022-09-12T18:44:08.570Z,18.50
2022-09-12T18:46:36.449Z,19.58
2022-09-12T18:49:05.539Z,19.83
2022-09-12T18:51:35.910Z,27.05
2022-09-12T18:54:06.749Z,23.48
2022-09-12T18:56:38.242Z,30.80
2022-09-12T18:59:07.314Z,37.30
2022-09-12T19:01:36.545Z,31.90
2022-09-12T19:04:06.002Z,33.25
2022-09-12T19:06:36.162Z,34.15
2022-09-12T19:09:07.768Z,38.38
2022-09-12T19:11:39.512Z,32.13
2022-09-12T19:14:08.181Z,25.10
2022-09-12T19:16:36.103Z,31.52
2022-09-12T19:19:04.216Z,18.65
2022-09-12T19:21:32.876Z,19.88
2022-09-12T19:24:02.953Z,25.35
2022-09-12T19:26:31.852Z,27.02
2022-09-12T19:29:02.466Z,24.67
2022-09-12T19:31:30.815Z,26.67
2022-09-12T19:34:01.383Z,31.23
2022-09-12T19:36:46.212Z,32.33
2022-09-12T19:39:14.443Z,33.72
2022-09-12T19:41:42.507Z,45.35
2022-09-12T19:44:11.530Z,41.17
2022-09-12T19:46:39.472Z,39.80
2022-09-12T19:49:07.004Z,35.65
2022-09-12T19:51:34.463Z,22.02
2022-09-12T19:54:02.109Z,24.35
2022-09-12T19:56:29.574Z,23.23
2022-09-12T19:58:57.109Z,17.92
2022-09-12T20:01:28.178Z,23.13
2022-09-12T20:03:56.418Z,17.17
2022-09-12T20:06:24.259Z,23.10
2022-09-12T20:08:51.970Z,34.22
2022-09-12T20:11:21.475Z,36.90
2022-09-12T20:13:49.131Z,29.95
2022-09-12T20:16:21.661Z,28.80
2022-09-12T20:18:54.410Z,41.40
2022-09-12T20:21:25.174Z,46.80
2022-09-12T20:23:52.874Z,31.90
2022-09-12T20:26:20.707Z,28.27
2022-09-12T20:28:48.592Z,20.35
2022-09-12T20:31:17.488Z,16.75
2022-09-12T20:33:49.837Z,32.85
2022-09-12T20:36:21.820Z,39.72
2022-09-12T20:38:50.789Z,27.50
2022-09-12T20:41:20.098Z,28.63
2022-09-12T20:43:50.962Z,23.30
2022-09-12T20:46:21.909Z,18.77
2022-09-12T20:48:50.273Z,21.50
2022-09-12T20:51:18.448Z,31.55
2022-09-12T20:53:47.983Z,18.95
2022-09-12T20:56:15.611Z,39.83
2022-09-12T20:58:44.630Z,28.52
2022-09-12T21:01:15.720Z,33.78
2022-09-12T21:03:44.661Z,42.80
2022-09-12T21:06:14.187Z,25.40
2022-09-12T21:08:41.651Z,31.05
2022-09-12T21:11:10.816Z,28.50
2022-09-12T21:13:38.899Z,35.17
2022-09-12T21:16:08.934Z,28.17
2022-09-12T21:18:37.311Z,20.63
2022-09-12T21:21:05.851Z,37.85
2022-09-12T21:23:34.428Z,19.25
2022-09-12T21:26:02.848Z,39.47
2022-09-12T21:28:32.506Z,39.55
2022-09-12T21:31:00.142Z,33.45
2022-09-12T21:33:28.105Z,15.07
2022-09-12T21:35:57.908Z,15.82
2022-09-12T21:38:25.437Z,21.67
2022-09-12T21:40:52.970Z,19.27
2022-09-12T21:43:20.426Z,28.65
2022-09-12T21:45:49.878Z,21.33
2022-09-12T21:48:17.340Z,43.05
2022-09-12T21:50:50.635Z,15.73
2022-09-12T21:53:18.278Z,15.63
2022-09-12T21:55:45.766Z,15.68
2022-09-12T21:58:13.276Z,15.07
2022-09-12T22:00:42.096Z,14.52
2022-09-12T22:03:11.529Z,14.32
2022-09-12T22:05:40.100Z,14.15
2022-09-12T22:08:08.450Z,13.80
2022-09-12T22:10:36.432Z,13.60
2022-09-12T22:13:04.066Z,15.50
2022-09-12T22:15:46.946Z,16.90
2022-09-12T22:18:15.859Z,15.20
2022-09-12T22:20:43.303Z,14.55
2022-09-12T22:23:26.562Z,13.48
2022-09-12T22:25:56.160Z,15.63
2022-09-12T22:28:25.027Z,16.15
2022-09-12T22:30:54.259Z,15.23
2022-09-12T22:33:23.301Z,14.77
2022-09-12T22:35:50.838Z,15.43
2022-09-12T22:38:18.334Z,18.25
2022-09-12T22:40:45.833Z,17.88
2022-09-12T22:43:13.443Z,24.25
2022-09-12T22:45:41.872Z,21.67
2022-09-12T22:48:09.527Z,28.58
2022-09-12T22:50:38.409Z,20.98
2022-09-12T22:53:05.901Z,14.98
2022-09-12T22:55:33.338Z,14.35
2022-09-12T22:58:00.932Z,17.73
2022-09-12T23:00:29.940Z,16.05
2022-09-12T23:02:58.308Z,32.40
2022-09-12T23:05:25.917Z,17.40
2022-09-12T23:07:55.528Z,16.63
2022-09-12T23:10:23.303Z,22.17
2022-09-12T23:12:50.771Z,16.13
2022-09-12T23:15:18.265Z,20.90
2022-09-12T23:17:45.769Z,21.10
2022-09-12T23:20:13.238Z,18.10
2022-09-12T23:22:40.714Z,17.10
2022-09-12T23:25:10.162Z,16.33
2022-09-12T23:27:37.647Z,35.13
2022-09-12T23:30:05.882Z,43.20
2022-09-12T23:32:33.491Z,37.90
2022-09-12T23:35:00.965Z,26.25
2022-09-12T23:37:28.422Z,26.50
2022-09-12T23:39:55.962Z,20.90
2022-09-12T23:42:24.866Z,38.28
2022-09-12T23:44:52.348Z,27.58
2022-09-12T23:47:19.817Z,38.10
2022-09-12T23:49:47.294Z,51.92
2022-09-12T23:52:14.743Z,44.65
2022-09-12T23:54:42.196Z,43.35
2022-09-12T23:57:09.702Z,58.35
2022-09-12T23:59:38.518Z,58.58
